Current Weather Conditions: station NFBF1

sailwx.info

Wind from 110 at 4 knots gusting 5

Air temperature 25.9° C

Last reported at 2014-Nov-26 01:54 UTC.
Time now 2014-Nov-26 04:12 UTC

Location: N 25°05' W 081°05'.
View on Google Maps.

See reports from other nearby stations

  
Tides and Currents Weather Stations Pressure Air Temp Water Temp Dewpoint Dewpoint Depression Visibility Wind Speed Wind Dir Waves Ship Positions
date/time (UTC)wind fromknots sea level pressurealtimeterstation pressurevisibilityair tempwater tempwave heightnotes
2014-Nov-26 01:54 110 4 gusting 5 25.9
2014-Nov-26 01:48 100 2 gusting 4 25.9
2014-Nov-26 00:54 090 1 gusting 1 25.9
2014-Nov-26 00:48 080 1 gusting 1 25.9
2014-Nov-25 23:54 090 1 gusting 1 25.5
2014-Nov-25 23:48 100 1 gusting 2 25.5
2014-Nov-25 23:30 100 2 gusting 3 25.6
2014-Nov-25 23:24 100 2 gusting 3 25.6
2014-Nov-25 23:18 100 2 gusting 3 25.6
2014-Nov-25 23:12 110 3 gusting 3 25.6
2014-Nov-25 23:06 110 3 gusting 4 25.6
2014-Nov-25 23:00 120 4 gusting 4 25.5
2014-Nov-25 22:54 110 4 gusting 4 25.5
2014-Nov-25 22:48 120 4 gusting 5 25.6
2014-Nov-25 21:54 130 5 gusting 6 25.9
2014-Nov-25 21:48 130 5 gusting 6 25.9
2014-Nov-25 21:42 130 5 gusting 6 25.9
2014-Nov-25 21:36 130 5 gusting 6 26.0
2014-Nov-25 21:30 160 5 gusting 6 26.1
2014-Nov-25 21:24 170 5 gusting 5 26.1
2014-Nov-25 21:18 170 5 gusting 6 26.0
2014-Nov-25 21:12 160 5 gusting 6 26.0
2014-Nov-25 21:06 160 6 gusting 7 26.0
2014-Nov-25 21:00 160 6 gusting 7 26.0
2014-Nov-25 20:54 160 6 gusting 7 26.0
2014-Nov-25 20:48 160 6 gusting 7 26.0
2014-Nov-25 19:54 160 7 gusting 8 26.1
2014-Nov-25 19:48 160 8 gusting 9 26.1
2014-Nov-25 18:54 160 9 gusting 12 26.1
2014-Nov-25 18:48 160 9 gusting 12 26.1
2014-Nov-25 18:42 170 10 gusting 12 26.1
2014-Nov-25 18:36 160 10 gusting 12 26.2
2014-Nov-25 18:30 160 10 gusting 11 26.2
2014-Nov-25 18:24 160 11 gusting 13 26.1
2014-Nov-25 18:18 160 12 gusting 13 26.1
2014-Nov-25 18:12 160 12 gusting 14 26.2
2014-Nov-25 18:06 160 12 gusting 14 26.3
2014-Nov-25 18:00 160 12 gusting 13 26.2
2014-Nov-25 17:54 160 11 gusting 13 26.1
2014-Nov-25 17:48 160 12 gusting 13 26.1
2014-Nov-25 16:54 150 10 gusting 13 26.1
2014-Nov-25 16:48 150 10 gusting 11 26.1
2014-Nov-25 15:54 150 9 gusting 11 25.9
2014-Nov-25 15:48 140 10 gusting 11 25.9
2014-Nov-25 14:54 140 12 gusting 14 25.9
2014-Nov-25 14:48 130 11 gusting 13 25.9
2014-Nov-25 13:54 130 7 gusting 8 25.6
2014-Nov-25 13:48 130 7 gusting 8 25.6
2014-Nov-25 12:54 140 9 gusting 12 25.5
2014-Nov-25 12:48 130 9 gusting 11 25.5
2014-Nov-25 11:54 130 8 gusting 9 25.3
2014-Nov-25 11:48 120 7 gusting 8 25.2
2014-Nov-25 11:42 120 8 gusting 9 25.2
2014-Nov-25 11:36 120 7 gusting 8 25.2
2014-Nov-25 11:30 120 7 gusting 8 25.3
2014-Nov-25 11:24 120 6 gusting 7 25.2
2014-Nov-25 11:18 120 6 gusting 8 25.2
2014-Nov-25 11:12 120 8 gusting 9 25.3
2014-Nov-25 11:06 120 8 gusting 9 25.2
2014-Nov-25 11:00 120 8 gusting 9 25.1
2014-Nov-25 10:54 120 8 gusting 9 25.1
2014-Nov-25 10:48 120 8 gusting 9 25.1
2014-Nov-25 10:42 120 9 gusting 10 25.1
2014-Nov-25 10:36 110 7 gusting 9 25.1
2014-Nov-25 10:30 110 7 gusting 8 25.1
2014-Nov-25 10:24 110 6 gusting 7 25.1
2014-Nov-25 10:18 110 6 gusting 7 25.0
2014-Nov-25 10:12 110 5 gusting 6 24.9
2014-Nov-25 10:06 120 6 gusting 7 24.9
2014-Nov-25 10:00 120 7 gusting 7 24.9
2014-Nov-25 08:54 110 5 gusting 6 24.9
2014-Nov-25 08:48 110 5 gusting 6 25.1
2014-Nov-25 07:54 100 2 gusting 4 25.1
2014-Nov-25 07:48 100 2 gusting 4 25.1
2014-Nov-25 06:54 110 5 gusting 6 25.1
2014-Nov-25 06:48 110 5 gusting 6 25.1
2014-Nov-25 05:54 110 4 gusting 5 25.1
2014-Nov-25 05:48 110 2 gusting 4 25.2
2014-Nov-25 05:42 110 3 gusting 4 25.2
2014-Nov-25 05:36 110 4 gusting 6 25.2
2014-Nov-25 05:30 120 5 gusting 6 25.2
2014-Nov-25 05:24 120 5 gusting 5 25.2
2014-Nov-25 05:18 110 4 gusting 5 25.2
2014-Nov-25 05:12 110 4 gusting 5 25.3
2014-Nov-25 05:06 120 5 gusting 6 25.3
2014-Nov-25 05:00 120 4 gusting 5 25.3
2014-Nov-25 04:54 130 5 gusting 7 25.4
2014-Nov-25 04:48 120 7 gusting 8 25.5
2014-Nov-25 04:42 120 6 gusting 8 25.5
2014-Nov-25 04:36 120 5 gusting 7 25.4
2014-Nov-25 04:30 110 3 gusting 5 25.4
2014-Nov-25 04:24 110 3 gusting 5 25.6
2014-Nov-25 04:18 120 5 gusting 6 25.6
2014-Nov-25 04:12 120 5 gusting 6 25.6
2014-Nov-25 04:06 120 5 gusting 6 25.6
2014-Nov-25 04:00 120 6 gusting 7 25.7
2014-Nov-25 03:54 120 6 gusting 7 25.8
2014-Nov-25 03:48 120 6 gusting 6 25.9
2014-Nov-25 02:54 120 6 gusting 7 25.7
2014-Nov-25 02:48 120 6 gusting 7 25.7
2014-Nov-25 02:42 120 7 gusting 8 25.7
2014-Nov-25 02:36 120 6 gusting 7 25.7
2014-Nov-25 02:30 110 5 gusting 7 25.6
2014-Nov-25 02:24 110 5 gusting 6 25.7
2014-Nov-25 02:18 120 7 gusting 7 25.7
2014-Nov-25 02:12 110 6 gusting 7 25.6
2014-Nov-25 02:06 110 6 gusting 7 25.7
2014-Nov-25 02:00 110 6 gusting 7 25.7
2014-Nov-25 01:54 110 6 gusting 6 25.6
2014-Nov-25 01:48 110 5 gusting 6 25.5
2014-Nov-25 01:42 120 6 gusting 7 25.6
2014-Nov-25 01:36 110 6 gusting 7 25.6
2014-Nov-25 01:30 110 6 gusting 7 25.6
2014-Nov-25 01:24 110 7 gusting 8 25.6
2014-Nov-25 01:18 120 7 gusting 8 25.6
2014-Nov-25 01:12 120 7 gusting 8 25.5
2014-Nov-25 01:06 120 7 gusting 8 25.4
2014-Nov-25 01:00 120 7 gusting 7 25.4
2014-Nov-25 00:54 120 6 gusting 6 25.5
2014-Nov-25 00:48 110 5 gusting 6 25.5
2014-Nov-24 23:54 110 4 gusting 4 25.3
2014-Nov-24 23:48 100 2 gusting 4 25.2
2014-Nov-24 22:54 110 4 gusting 5 25.4
2014-Nov-24 22:48 110 5 gusting 5 25.5
2014-Nov-24 21:54 100 1 gusting 2 25.6
2014-Nov-24 21:48 090 1 gusting 2 25.6
2014-Nov-24 20:54 110 4 gusting 5 25.6
2014-Nov-24 20:48 130 5 gusting 6 25.6
2014-Nov-24 19:54 120 5 gusting 5 25.4
2014-Nov-24 19:48 140 5 gusting 5 25.4
2014-Nov-24 18:54 140 4 gusting 4 25.5
2014-Nov-24 18:48 130 2 gusting 4 25.6
2014-Nov-24 18:42 120 3 gusting 4 25.6
2014-Nov-24 18:36 130 2 gusting 3 25.6
2014-Nov-24 18:30 140 1 gusting 3 25.8
2014-Nov-24 18:24 140 1 gusting 2 25.9
2014-Nov-24 18:18 140 2 gusting 2 25.8
2014-Nov-24 18:12 140 2 gusting 2 25.9
2014-Nov-24 18:06 130 2 gusting 2 25.9
2014-Nov-24 18:00 130 2 gusting 2 25.9
2014-Nov-24 17:54 26.0
2014-Nov-24 17:48 25.9
2014-Nov-24 16:54 140 2 gusting 2 25.4
2014-Nov-24 16:48 140 2 gusting 2 25.3
2014-Nov-24 15:54 25.1
2014-Nov-24 15:48 170 0 gusting 1 24.9
2014-Nov-24 15:42 180 2 gusting 3 24.8
2014-Nov-24 15:36 180 3 gusting 4 24.6
2014-Nov-24 15:30 170 3 gusting 4 24.6
2014-Nov-24 15:24 160 3 gusting 3 24.6
2014-Nov-24 15:18 190 2 gusting 3 24.7
2014-Nov-24 15:12 190 3 gusting 3 24.7
2014-Nov-24 15:06 190 3 gusting 3 24.6
2014-Nov-24 15:00 180 2 gusting 3 24.6
2014-Nov-24 14:54 180 1 gusting 1 24.6
2014-Nov-24 14:48 170 1 gusting 1 24.5
2014-Nov-24 13:54 24.3
2014-Nov-24 13:48 160 1 gusting 1 24.2
2014-Nov-24 13:42 24.1
2014-Nov-24 13:36 24.0
2014-Nov-24 13:30 23.9
2014-Nov-24 13:24 080 1 gusting 1 24.0
2014-Nov-24 13:18 080 1 gusting 2 23.9
2014-Nov-24 13:12 090 2 gusting 2 23.9
2014-Nov-24 13:06 090 1 gusting 2 23.8
2014-Nov-24 13:00 090 1 gusting 1 23.7
2014-Nov-24 12:54 23.8
2014-Nov-24 12:48 090 0 gusting 0 23.8
2014-Nov-24 11:54 170 1 gusting 2 24.0
2014-Nov-24 11:48 170 1 gusting 2 24.1
2014-Nov-24 11:42 170 2 gusting 3 24.1
2014-Nov-24 11:36 170 2 gusting 3 24.2
2014-Nov-24 11:30 24.2
2014-Nov-24 11:24 24.4
2014-Nov-24 11:18 24.4
2014-Nov-24 11:12 120 1 gusting 2 24.4
2014-Nov-24 11:06 120 2 gusting 3 24.3
2014-Nov-24 11:00 120 2 gusting 3 24.3
2014-Nov-24 10:54 130 4 gusting 5 24.3
2014-Nov-24 10:48 120 4 gusting 5 24.1
2014-Nov-24 09:54 24.1
2014-Nov-24 09:48 24.1
2014-Nov-24 08:54 24.1
2014-Nov-24 08:48 090 0 gusting 1 24.1
2014-Nov-24 08:42 100 2 gusting 2 24.2
2014-Nov-24 08:36 090 1 gusting 2 24.3
2014-Nov-24 08:30 090 1 gusting 2 24.4
2014-Nov-24 08:24 24.4
2014-Nov-24 08:18 24.5
2014-Nov-24 08:12 24.6
2014-Nov-24 08:06 24.7
2014-Nov-24 08:00 24.7
2014-Nov-24 07:54 24.6
2014-Nov-24 07:48 24.5
2014-Nov-24 07:42 24.4
2014-Nov-24 07:36 24.3
2014-Nov-24 07:30 24.2
2014-Nov-24 07:24 24.3
2014-Nov-24 07:18 24.3
2014-Nov-24 07:12 24.3
2014-Nov-24 07:06 090 1 gusting 2 24.3
2014-Nov-24 07:00 100 2 gusting 3 24.4
2014-Nov-24 06:54 100 1 gusting 2 24.4
2014-Nov-24 06:48 100 1 gusting 1 24.5
2014-Nov-24 05:54 110 4 gusting 5 24.5
2014-Nov-24 05:48 120 5 gusting 5 24.5
2014-Nov-24 04:54 100 4 gusting 4 24.4
2014-Nov-24 04:48 110 4 gusting 5 24.4